APG714 RPVK-RPLL
Flight info
| Callsign | APG714 |
|---|---|
| Flight time | 0h 39m |
| Altitude | 24000 |
| Route | MINOR2R MINOR B473 LAIYA LAIYA3R |
| Aircraft | A320/M-SDE3FGHIRWY/LB1 |
Departure
| Time | 2026-04-14 15:42 |
|---|---|
| Airport | Kalibo International Airport (RPVK) |
Arrival
| Time | 2026-04-14 16:21 |
|---|---|
| Airport | Ninoy Aquino International Airport (RPLL) |
| Time | Latitude | Longitude | Altitude | Speed | Heading |
|---|---|---|---|---|---|
| 2026-04-14 15:28 | 11.68542 | 122.38107 | 21 ft | 0 kts | 350° |
| 2026-04-14 15:38 | 11.68545 | 122.38107 | 24 ft | 4 kts | 351° |
| 2026-04-14 15:39 | 11.68562 | 122.38164 | 20 ft | 16 kts | 84° |
| 2026-04-14 15:39 | 11.68568 | 122.38264 | 23 ft | 12 kts | 66° |
| 2026-04-14 15:39 | 11.68617 | 122.38325 | 22 ft | 10 kts | 49° |
| 2026-04-14 15:39 | 11.68663 | 122.38374 | 22 ft | 8 kts | 33° |
| 2026-04-14 15:40 | 11.68669 | 122.38389 | 22 ft | 1 kts | 173° |
| 2026-04-14 15:40 | 11.68661 | 122.38375 | 22 ft | 4 kts | 237° |
| 2026-04-14 15:40 | 11.68653 | 122.38365 | 22 ft | 0 kts | 229° |
| 2026-04-14 15:40 | 11.68652 | 122.38363 | 22 ft | 1 kts | 229° |
| 2026-04-14 15:41 | 11.68649 | 122.38360 | 22 ft | 0 kts | 230° |
| 2026-04-14 15:41 | 11.68634 | 122.38341 | 22 ft | 24 kts | 230° |
| 2026-04-14 15:41 | 11.68335 | 122.37994 | 20 ft | 102 kts | 229° |
| 2026-04-14 15:41 | 11.67728 | 122.37293 | 29 ft | 158 kts | 227° |
| 2026-04-14 15:42 | 11.66970 | 122.36436 | 616 ft | 163 kts | 228° |
| 2026-04-14 15:42 | 11.66234 | 122.35555 | 1288 ft | 166 kts | 233° |
| 2026-04-14 15:42 | 11.65955 | 122.34429 | 1865 ft | 171 kts | 283° |
| 2026-04-14 15:42 | 11.66537 | 122.33344 | 2232 ft | 185 kts | 323° |
| 2026-04-14 15:43 | 11.67757 | 122.32826 | 2566 ft | 201 kts | 354° |
| 2026-04-14 15:43 | 11.69231 | 122.32578 | 2935 ft | 227 kts | 354° |
| 2026-04-14 15:43 | 11.70874 | 122.32301 | 3416 ft | 252 kts | 353° |
| 2026-04-14 15:43 | 11.72647 | 122.31994 | 4142 ft | 263 kts | 353° |
| 2026-04-14 15:44 | 11.74462 | 122.31672 | 5107 ft | 266 kts | 352° |
| 2026-04-14 15:44 | 11.76313 | 122.31339 | 5930 ft | 273 kts | 352° |
| 2026-04-14 15:44 | 11.78207 | 122.30993 | 6721 ft | 280 kts | 352° |
| 2026-04-14 15:44 | 11.80140 | 122.30639 | 7506 ft | 284 kts | 352° |
| 2026-04-14 15:45 | 11.82097 | 122.30279 | 8336 ft | 287 kts | 352° |
| 2026-04-14 15:45 | 11.84052 | 122.29918 | 9145 ft | 290 kts | 352° |
| 2026-04-14 15:45 | 11.86046 | 122.29552 | 9932 ft | 293 kts | 352° |
| 2026-04-14 15:45 | 11.88093 | 122.29179 | 10362 ft | 309 kts | 352° |
| 2026-04-14 15:46 | 11.90285 | 122.28783 | 10588 ft | 330 kts | 352° |
| 2026-04-14 15:46 | 11.92578 | 122.28367 | 11115 ft | 339 kts | 351° |
| 2026-04-14 15:46 | 11.94914 | 122.27940 | 11761 ft | 343 kts | 351° |
| 2026-04-14 15:46 | 11.97271 | 122.27507 | 12444 ft | 346 kts | 351° |
| 2026-04-14 15:47 | 11.99654 | 122.27070 | 13105 ft | 350 kts | 351° |
| 2026-04-14 15:47 | 12.02061 | 122.26631 | 13770 ft | 353 kts | 351° |
| 2026-04-14 15:47 | 12.04487 | 122.26187 | 14353 ft | 356 kts | 351° |
| 2026-04-14 15:47 | 12.06939 | 122.25739 | 14931 ft | 360 kts | 351° |
| 2026-04-14 15:48 | 12.09429 | 122.25420 | 15502 ft | 362 kts | 357° |
| 2026-04-14 15:48 | 12.11953 | 122.25234 | 16089 ft | 365 kts | 357° |
| 2026-04-14 15:48 | 12.14502 | 122.25048 | 16679 ft | 368 kts | 357° |
| 2026-04-14 15:48 | 12.17063 | 122.24865 | 17246 ft | 371 kts | 357° |
| 2026-04-14 15:49 | 12.19621 | 122.24681 | 17826 ft | 375 kts | 357° |
| 2026-04-14 15:49 | 12.22232 | 122.24492 | 18366 ft | 378 kts | 357° |
| 2026-04-14 15:49 | 12.24869 | 122.24302 | 18862 ft | 381 kts | 357° |
| 2026-04-14 15:49 | 12.27521 | 122.24110 | 19355 ft | 384 kts | 357° |
| 2026-04-14 15:50 | 12.30199 | 122.23917 | 19842 ft | 387 kts | 357° |
| 2026-04-14 15:50 | 12.32901 | 122.23724 | 20344 ft | 391 kts | 356° |
| 2026-04-14 15:50 | 12.35599 | 122.23287 | 20820 ft | 396 kts | 346° |
| 2026-04-14 15:50 | 12.38193 | 122.22315 | 21309 ft | 401 kts | 335° |
| 2026-04-14 15:51 | 12.40594 | 122.20836 | 21794 ft | 405 kts | 327° |
| 2026-04-14 15:51 | 12.42927 | 122.19203 | 22289 ft | 408 kts | 327° |
| 2026-04-14 15:51 | 12.45292 | 122.17558 | 22772 ft | 412 kts | 327° |
| 2026-04-14 15:51 | 12.47642 | 122.15930 | 23239 ft | 415 kts | 327° |
| 2026-04-14 15:52 | 12.50044 | 122.14269 | 23654 ft | 418 kts | 327° |
| 2026-04-14 15:52 | 12.52464 | 122.12595 | 23846 ft | 420 kts | 327° |
| 2026-04-14 15:52 | 12.54870 | 122.10927 | 23899 ft | 413 kts | 327° |
| 2026-04-14 15:52 | 12.57232 | 122.09286 | 23908 ft | 408 kts | 326° |
| 2026-04-14 15:53 | 12.59574 | 122.07656 | 23909 ft | 407 kts | 326° |
| 2026-04-14 15:53 | 12.61915 | 122.06026 | 23910 ft | 407 kts | 326° |
| 2026-04-14 15:53 | 12.64255 | 122.04397 | 23911 ft | 407 kts | 326° |
| 2026-04-14 15:53 | 12.66595 | 122.02771 | 23908 ft | 406 kts | 326° |
| 2026-04-14 15:54 | 12.71274 | 121.99522 | 23907 ft | 406 kts | 326° |
| 2026-04-14 15:54 | 12.73614 | 121.97893 | 23912 ft | 406 kts | 326° |
| 2026-04-14 15:54 | 12.75952 | 121.96265 | 23909 ft | 406 kts | 326° |
| 2026-04-14 15:55 | 12.78288 | 121.94642 | 23912 ft | 406 kts | 326° |
| 2026-04-14 15:55 | 12.80626 | 121.93016 | 23916 ft | 406 kts | 326° |
| 2026-04-14 15:55 | 12.82963 | 121.91390 | 23918 ft | 406 kts | 326° |
| 2026-04-14 15:55 | 12.85292 | 121.89764 | 23915 ft | 406 kts | 326° |
| 2026-04-14 15:56 | 12.87629 | 121.88134 | 23913 ft | 406 kts | 326° |
| 2026-04-14 15:56 | 12.89964 | 121.86503 | 23913 ft | 406 kts | 326° |
| 2026-04-14 15:56 | 12.92291 | 121.84879 | 23915 ft | 406 kts | 326° |
| 2026-04-14 15:56 | 12.94626 | 121.83251 | 23913 ft | 405 kts | 326° |
| 2026-04-14 15:57 | 12.96961 | 121.81623 | 23915 ft | 405 kts | 326° |
| 2026-04-14 15:57 | 12.99258 | 121.80019 | 23915 ft | 405 kts | 326° |
| 2026-04-14 15:57 | 13.01588 | 121.78393 | 23917 ft | 405 kts | 326° |
| 2026-04-14 15:57 | 13.03921 | 121.76768 | 23917 ft | 405 kts | 326° |
| 2026-04-14 15:58 | 13.06244 | 121.75147 | 23904 ft | 404 kts | 326° |
| 2026-04-14 15:58 | 13.08542 | 121.73540 | 23687 ft | 395 kts | 326° |
| 2026-04-14 15:58 | 13.10796 | 121.71964 | 23466 ft | 390 kts | 326° |
| 2026-04-14 15:58 | 13.13031 | 121.70400 | 23207 ft | 388 kts | 326° |
| 2026-04-14 15:59 | 13.15260 | 121.68843 | 22950 ft | 386 kts | 326° |
| 2026-04-14 15:59 | 13.17470 | 121.67301 | 22701 ft | 384 kts | 326° |
| 2026-04-14 15:59 | 13.19676 | 121.65759 | 22440 ft | 382 kts | 326° |
| 2026-04-14 15:59 | 13.21869 | 121.64224 | 22188 ft | 381 kts | 326° |
| 2026-04-14 16:00 | 13.24050 | 121.62697 | 21942 ft | 379 kts | 326° |
| 2026-04-14 16:00 | 13.26226 | 121.61173 | 21694 ft | 377 kts | 326° |
| 2026-04-14 16:00 | 13.28363 | 121.59676 | 21454 ft | 376 kts | 326° |
| 2026-04-14 16:00 | 13.30511 | 121.58170 | 21209 ft | 374 kts | 327° |
| 2026-04-14 16:01 | 13.32652 | 121.56669 | 20920 ft | 370 kts | 327° |
| 2026-04-14 16:01 | 13.34772 | 121.55184 | 20454 ft | 368 kts | 327° |
| 2026-04-14 16:01 | 13.36879 | 121.53707 | 19978 ft | 367 kts | 327° |
| 2026-04-14 16:01 | 13.38982 | 121.52233 | 19501 ft | 366 kts | 327° |
| 2026-04-14 16:02 | 13.41085 | 121.50756 | 19025 ft | 365 kts | 327° |
| 2026-04-14 16:02 | 13.43180 | 121.49284 | 18554 ft | 365 kts | 327° |
| 2026-04-14 16:02 | 13.45276 | 121.47814 | 18063 ft | 365 kts | 327° |
| 2026-04-14 16:02 | 13.47370 | 121.46350 | 17567 ft | 363 kts | 327° |
| 2026-04-14 16:03 | 13.49451 | 121.44894 | 17108 ft | 361 kts | 327° |
| 2026-04-14 16:03 | 13.51517 | 121.43448 | 16654 ft | 359 kts | 327° |
| 2026-04-14 16:03 | 13.53577 | 121.42003 | 16199 ft | 357 kts | 327° |
| 2026-04-14 16:03 | 13.55603 | 121.40580 | 15991 ft | 348 kts | 327° |
| 2026-04-14 16:04 | 13.57574 | 121.39196 | 15864 ft | 337 kts | 327° |
| 2026-04-14 16:04 | 13.59470 | 121.37826 | 15683 ft | 329 kts | 326° |
| 2026-04-14 16:04 | 13.61298 | 121.36469 | 15310 ft | 328 kts | 325° |
| 2026-04-14 16:04 | 13.63138 | 121.35087 | 15002 ft | 325 kts | 325° |
| 2026-04-14 16:05 | 13.64949 | 121.33720 | 14721 ft | 322 kts | 325° |
| 2026-04-14 16:05 | 13.66755 | 121.32358 | 14434 ft | 320 kts | 325° |
| 2026-04-14 16:05 | 13.68547 | 121.31011 | 14152 ft | 319 kts | 325° |
| 2026-04-14 16:05 | 13.70333 | 121.29672 | 13869 ft | 317 kts | 325° |
| 2026-04-14 16:06 | 13.72115 | 121.28341 | 13572 ft | 316 kts | 325° |
| 2026-04-14 16:06 | 13.73895 | 121.27015 | 13286 ft | 315 kts | 325° |
| 2026-04-14 16:06 | 13.75666 | 121.25697 | 13010 ft | 314 kts | 325° |
| 2026-04-14 16:06 | 13.77426 | 121.24385 | 12735 ft | 313 kts | 325° |
| 2026-04-14 16:07 | 13.79186 | 121.23072 | 12530 ft | 312 kts | 325° |
| 2026-04-14 16:07 | 13.80922 | 121.21778 | 12250 ft | 311 kts | 325° |
| 2026-04-14 16:07 | 13.82670 | 121.20479 | 11982 ft | 310 kts | 326° |
| 2026-04-14 16:07 | 13.84430 | 121.19207 | 11741 ft | 309 kts | 326° |
| 2026-04-14 16:08 | 13.86198 | 121.17952 | 11500 ft | 308 kts | 327° |
| 2026-04-14 16:08 | 13.87967 | 121.16705 | 11264 ft | 308 kts | 327° |
| 2026-04-14 16:08 | 13.89731 | 121.15462 | 11034 ft | 307 kts | 327° |
| 2026-04-14 16:08 | 13.91487 | 121.14224 | 10802 ft | 306 kts | 327° |
| 2026-04-14 16:09 | 13.93242 | 121.12981 | 10568 ft | 306 kts | 327° |
| 2026-04-14 16:09 | 13.94993 | 121.11737 | 10336 ft | 305 kts | 327° |
| 2026-04-14 16:09 | 13.96734 | 121.10496 | 10109 ft | 305 kts | 327° |
| 2026-04-14 16:09 | 13.98474 | 121.09255 | 9910 ft | 304 kts | 327° |
| 2026-04-14 16:10 | 14.00212 | 121.08016 | 9797 ft | 304 kts | 327° |
| 2026-04-14 16:10 | 14.01925 | 121.06795 | 9672 ft | 303 kts | 327° |
| 2026-04-14 16:10 | 14.03653 | 121.05561 | 9548 ft | 302 kts | 327° |
| 2026-04-14 16:10 | 14.05378 | 121.04333 | 9421 ft | 301 kts | 327° |
| 2026-04-14 16:11 | 14.07098 | 121.03109 | 9208 ft | 299 kts | 327° |
| 2026-04-14 16:11 | 14.08806 | 121.01891 | 8809 ft | 297 kts | 327° |
| 2026-04-14 16:11 | 14.10502 | 121.00681 | 8384 ft | 296 kts | 327° |
| 2026-04-14 16:11 | 14.12194 | 120.99473 | 7952 ft | 296 kts | 327° |
| 2026-04-14 16:12 | 14.13881 | 120.98270 | 7538 ft | 294 kts | 327° |
| 2026-04-14 16:12 | 14.15544 | 120.97087 | 7160 ft | 291 kts | 327° |
| 2026-04-14 16:12 | 14.17211 | 120.95903 | 6829 ft | 287 kts | 327° |
| 2026-04-14 16:12 | 14.18851 | 120.94734 | 6444 ft | 285 kts | 327° |
| 2026-04-14 16:13 | 14.20476 | 120.93573 | 6028 ft | 283 kts | 327° |
| 2026-04-14 16:13 | 14.22073 | 120.92432 | 5460 ft | 280 kts | 327° |
| 2026-04-14 16:13 | 14.23608 | 120.91334 | 5296 ft | 256 kts | 327° |
| 2026-04-14 16:13 | 14.25004 | 120.90335 | 5183 ft | 235 kts | 327° |
| 2026-04-14 16:14 | 14.26326 | 120.89391 | 5081 ft | 229 kts | 327° |
| 2026-04-14 16:14 | 14.27638 | 120.88472 | 4977 ft | 225 kts | 332° |
| 2026-04-14 16:14 | 14.28980 | 120.87696 | 4733 ft | 220 kts | 333° |
| 2026-04-14 16:14 | 14.30320 | 120.86924 | 4453 ft | 219 kts | 333° |
| 2026-04-14 16:15 | 14.31642 | 120.86159 | 4189 ft | 217 kts | 333° |
| 2026-04-14 16:15 | 14.32943 | 120.85407 | 3936 ft | 216 kts | 333° |
| 2026-04-14 16:15 | 14.34257 | 120.84646 | 3680 ft | 215 kts | 333° |
| 2026-04-14 16:15 | 14.35551 | 120.83894 | 3468 ft | 210 kts | 333° |
| 2026-04-14 16:16 | 14.36838 | 120.83271 | 3397 ft | 201 kts | 347° |
| 2026-04-14 16:16 | 14.38209 | 120.83099 | 3324 ft | 198 kts | 6° |
| 2026-04-14 16:16 | 14.39538 | 120.83394 | 3221 ft | 196 kts | 24° |
| 2026-04-14 16:16 | 14.40691 | 120.84111 | 2970 ft | 193 kts | 43° |
| 2026-04-14 16:17 | 14.41527 | 120.85166 | 2770 ft | 190 kts | 61° |
| 2026-04-14 16:17 | 14.42184 | 120.86351 | 2595 ft | 190 kts | 60° |
| 2026-04-14 16:17 | 14.42841 | 120.87530 | 2433 ft | 186 kts | 60° |
| 2026-04-14 16:17 | 14.43447 | 120.88617 | 2346 ft | 165 kts | 60° |
| 2026-04-14 16:18 | 14.43993 | 120.89597 | 2207 ft | 151 kts | 61° |
| 2026-04-14 16:18 | 14.44501 | 120.90510 | 2048 ft | 144 kts | 61° |
| 2026-04-14 16:18 | 14.44993 | 120.91394 | 1878 ft | 141 kts | 61° |
| 2026-04-14 16:18 | 14.45478 | 120.92266 | 1690 ft | 138 kts | 62° |
| 2026-04-14 16:19 | 14.45958 | 120.93129 | 1527 ft | 138 kts | 61° |
| 2026-04-14 16:19 | 14.46435 | 120.93986 | 1346 ft | 138 kts | 61° |
| 2026-04-14 16:19 | 14.46913 | 120.94846 | 1180 ft | 139 kts | 62° |
| 2026-04-14 16:19 | 14.47393 | 120.95710 | 1000 ft | 140 kts | 60° |
| 2026-04-14 16:20 | 14.47876 | 120.96578 | 829 ft | 140 kts | 62° |
| 2026-04-14 16:20 | 14.48359 | 120.97446 | 655 ft | 140 kts | 62° |
| 2026-04-14 16:20 | 14.48841 | 120.98321 | 455 ft | 141 kts | 62° |
| 2026-04-14 16:20 | 14.49318 | 120.99180 | 265 ft | 139 kts | 62° |
| 2026-04-14 16:21 | 14.49803 | 121.00061 | 91 ft | 139 kts | 63° |
| 2026-04-14 16:21 | 14.50224 | 121.00821 | 63 ft | 101 kts | 61° |
| 2026-04-14 16:21 | 14.50495 | 121.01302 | 61 ft | 61 kts | 59° |
| 2026-04-14 16:21 | 14.50671 | 121.01609 | 68 ft | 39 kts | 58° |
| 2026-04-14 16:22 | 14.50823 | 121.01768 | 63 ft | 21 kts | 39° |
| 2026-04-14 16:22 | 14.50904 | 121.01769 | 68 ft | 10 kts | 302° |
| 2026-04-14 16:22 | 14.50886 | 121.01705 | 66 ft | 9 kts | 244° |
| 2026-04-14 16:22 | 14.50875 | 121.01663 | 68 ft | 3 kts | 320° |
| 2026-04-14 16:23 | 14.50908 | 121.01640 | 65 ft | 10 kts | 312° |
| 2026-04-14 16:23 | 14.50899 | 121.01583 | 69 ft | 8 kts | 242° |
| 2026-04-14 16:23 | 14.50874 | 121.01536 | 69 ft | 7 kts | 239° |
| 2026-04-14 16:23 | 14.50847 | 121.01488 | 60 ft | 8 kts | 239° |
| 2026-04-14 16:24 | 14.50836 | 121.01455 | 67 ft | 3 kts | 303° |
| 2026-04-14 16:24 | 14.50867 | 121.01437 | 68 ft | 8 kts | 330° |
| 2026-04-14 16:24 | 14.50912 | 121.01410 | 69 ft | 0 kts | 330° |